createdAt,value
2019-05-17T00:04:56.384Z,8.02
2019-05-17T00:07:27.256Z,7.99
2019-05-17T00:09:57.140Z,8.10
2019-05-17T00:17:57.105Z,8.37
2019-05-17T00:20:26.701Z,8.17
2019-05-17T00:22:57.392Z,8.09
2019-05-17T00:25:27.493Z,8.07
2019-05-17T00:27:58.247Z,8.06
2019-05-17T00:30:26.928Z,7.96
2019-05-17T00:33:16.786Z,7.97
2019-05-17T00:35:46.912Z,8.11
2019-05-17T00:38:16.941Z,8.04
2019-05-17T00:40:47.000Z,7.99
2019-05-17T00:43:16.907Z,7.94
2019-05-17T00:45:47.566Z,7.91
2019-05-17T00:48:17.318Z,7.89
2019-05-17T00:50:53.359Z,7.92
2019-05-17T00:53:18.306Z,7.90
2019-05-17T00:55:47.650Z,7.84
2019-05-17T00:58:17.478Z,7.92
2019-05-17T01:01:08.409Z,7.88
2019-05-17T01:03:37.776Z,7.90
2019-05-17T01:12:02.132Z,7.89
2019-05-17T01:14:30.842Z,7.80
2019-05-17T01:16:59.486Z,7.63
2019-05-17T01:19:28.692Z,7.57
2019-05-17T01:21:57.796Z,7.46
2019-05-17T01:24:27.412Z,7.39
2019-05-17T01:26:57.502Z,7.40
2019-05-17T01:29:27.610Z,7.43
2019-05-17T01:31:57.128Z,7.35
2019-05-17T01:34:46.945Z,7.33
2019-05-17T01:37:36.953Z,7.27
2019-05-17T01:40:46.373Z,7.23
2019-05-17T01:45:52.631Z,7.20
2019-05-17T01:50:57.926Z,7.18
2019-05-17T01:53:27.137Z,7.30
2019-05-17T01:55:57.735Z,7.12
2019-05-17T01:58:27.100Z,7.11
2019-05-17T02:04:06.652Z,7.01
2019-05-17T02:06:36.645Z,6.89
2019-05-17T02:09:47.712Z,6.95
2019-05-17T02:12:17.412Z,6.86
2019-05-17T02:15:07.059Z,6.90
2019-05-17T02:17:58.162Z,6.90
2019-05-17T02:20:27.622Z,6.86
2019-05-17T02:22:57.059Z,6.81
2019-05-17T02:25:27.270Z,6.82
2019-05-17T02:27:56.620Z,6.73
2019-05-17T02:30:25.318Z,6.68
2019-05-17T02:33:33.958Z,6.77
2019-05-17T02:36:03.062Z,6.77
2019-05-17T02:38:33.706Z,6.74
2019-05-17T02:43:37.361Z,6.90
2019-05-17T02:46:06.768Z,6.91
2019-05-17T02:48:35.462Z,6.91
2019-05-17T02:51:04.265Z,7.00
2019-05-17T02:53:33.684Z,7.09
2019-05-17T02:56:03.586Z,6.98
2019-05-17T02:58:33.635Z,6.99
2019-05-17T03:01:03.655Z,6.79
2019-05-17T03:03:33.349Z,7.03
2019-05-17T03:06:03.211Z,6.91
2019-05-17T03:08:34.301Z,7.08
2019-05-17T03:11:43.794Z,7.01
2019-05-17T03:14:13.070Z,6.90
2019-05-17T03:16:43.377Z,6.83
2019-05-17T03:19:33.009Z,6.74
2019-05-17T03:22:07.470Z,6.88
2019-05-17T03:24:34.510Z,6.92
2019-05-17T03:27:03.821Z,6.79
2019-05-17T03:29:33.663Z,6.77
2019-05-17T03:32:08.353Z,6.78
2019-05-17T03:34:37.022Z,6.89
2019-05-17T03:37:07.327Z,6.82
2019-05-17T03:39:36.638Z,6.69
2019-05-17T03:42:06.084Z,6.70
2019-05-17T03:44:35.391Z,6.65
2019-05-17T03:47:44.880Z,6.85
2019-05-17T03:50:15.340Z,6.81
2019-05-17T03:52:45.003Z,6.69
2019-05-17T03:58:12.520Z,6.83
2019-05-17T04:00:42.835Z,6.69
2019-05-17T04:03:34.666Z,6.70
2019-05-17T04:06:03.871Z,6.77
2019-05-17T04:08:52.750Z,6.93
2019-05-17T04:11:31.173Z,6.73
2019-05-17T04:13:53.692Z,6.88
2019-05-17T04:16:23.835Z,6.94
2019-05-17T04:18:53.608Z,7.10
2019-05-17T04:21:24.147Z,7.08
2019-05-17T04:23:53.906Z,7.03
2019-05-17T04:26:23.968Z,6.98
2019-05-17T04:29:13.945Z,6.83
2019-05-17T04:31:43.713Z,6.85
2019-05-17T04:37:04.290Z,6.82
2019-05-17T04:39:33.366Z,6.97
2019-05-17T04:44:36.367Z,7.24
2019-05-17T04:47:05.324Z,7.19
2019-05-17T04:49:34.327Z,7.30
2019-05-17T04:52:03.751Z,7.27
2019-05-17T04:54:53.693Z,7.23
2019-05-17T04:57:43.720Z,7.28
2019-05-17T05:00:34.219Z,7.40
2019-05-17T05:03:43.411Z,7.60
2019-05-17T05:06:13.396Z,7.55
2019-05-17T05:12:33.620Z,7.65
2019-05-17T05:15:03.478Z,7.84
2019-05-17T05:17:33.433Z,7.92
2019-05-17T05:20:02.738Z,8.06
2019-05-17T05:22:33.030Z,8.10
2019-05-17T05:25:22.021Z,8.10
2019-05-17T05:27:51.658Z,8.22
2019-05-17T05:30:22.552Z,8.45
2019-05-17T05:32:52.461Z,8.56
2019-05-17T05:35:22.450Z,8.59
2019-05-17T05:38:32.254Z,8.67
2019-05-17T05:41:02.298Z,8.67
2019-05-17T05:43:32.757Z,8.85
2019-05-17T05:46:02.515Z,8.86
2019-05-17T05:48:32.621Z,8.92
2019-05-17T05:51:04.146Z,9.08
2019-05-17T05:53:32.666Z,9.16
2019-05-17T05:56:03.570Z,9.26
2019-05-17T05:58:33.153Z,9.34
2019-05-17T06:01:02.572Z,9.45
2019-05-17T06:03:32.320Z,9.49
2019-05-17T06:06:01.809Z,9.59
2019-05-17T06:08:32.269Z,9.65
2019-05-17T06:11:02.316Z,9.72
2019-05-17T06:14:12.319Z,9.77
2019-05-17T06:16:42.643Z,9.89
2019-05-17T06:19:12.544Z,9.97
2019-05-17T06:21:42.723Z,10.06
2019-05-17T06:24:11.996Z,10.17
2019-05-17T06:26:42.271Z,10.16
2019-05-17T06:29:12.343Z,10.23
2019-05-17T06:31:43.358Z,10.39
2019-05-17T06:34:12.214Z,10.38
2019-05-17T06:36:42.381Z,10.39
2019-05-17T06:39:11.794Z,10.57
2019-05-17T06:41:42.051Z,10.67
2019-05-17T06:44:12.371Z,10.79
2019-05-17T06:46:42.461Z,10.98
2019-05-17T06:49:11.741Z,11.55
2019-05-17T06:51:42.640Z,12.81
2019-05-17T06:54:12.153Z,14.83
2019-05-17T06:56:42.279Z,16.30
2019-05-17T06:59:10.892Z,17.33
2019-05-17T07:01:41.020Z,18.62
2019-05-17T07:04:30.004Z,19.33
2019-05-17T07:07:20.715Z,19.47
2019-05-17T07:09:49.689Z,20.57
2019-05-17T07:12:20.226Z,20.82
2019-05-17T07:14:50.716Z,19.88
2019-05-17T07:17:20.241Z,21.14
2019-05-17T07:19:50.775Z,22.01
2019-05-17T07:22:21.259Z,22.57
2019-05-17T07:24:50.255Z,21.78
2019-05-17T07:27:19.955Z,21.77
2019-05-17T07:29:49.737Z,20.75
2019-05-17T07:32:19.568Z,19.76
2019-05-17T07:34:50.183Z,20.57
2019-05-17T07:37:19.587Z,21.46
2019-05-17T07:40:00.492Z,21.36
2019-05-17T07:42:19.624Z,21.18
2019-05-17T07:44:49.818Z,21.49
2019-05-17T07:47:20.308Z,22.05
2019-05-17T07:49:49.471Z,22.54
2019-05-17T07:52:20.619Z,22.34
2019-05-17T07:54:50.851Z,22.91
2019-05-17T07:57:20.734Z,21.65
2019-05-17T07:59:50.863Z,21.06
2019-05-17T08:02:20.713Z,21.28
2019-05-17T08:04:50.144Z,20.23
2019-05-17T08:07:19.813Z,20.21
2019-05-17T08:09:50.480Z,20.48
2019-05-17T08:12:19.946Z,21.25
2019-05-17T08:14:50.220Z,21.88
2019-05-17T08:17:19.898Z,22.00
2019-05-17T08:20:10.769Z,20.64
2019-05-17T08:22:40.159Z,19.87
2019-05-17T08:25:30.459Z,19.86
2019-05-17T08:27:59.616Z,20.57
2019-05-17T08:31:09.914Z,20.64
2019-05-17T08:33:40.477Z,20.33
2019-05-17T08:36:09.316Z,19.80
2019-05-17T08:38:39.470Z,19.75
2019-05-17T08:41:10.347Z,19.03
2019-05-17T08:43:46.132Z,19.04
2019-05-17T08:46:10.590Z,19.17
2019-05-17T08:48:40.141Z,19.06
2019-05-17T08:51:10.827Z,18.57
2019-05-17T08:53:40.057Z,18.12
2019-05-17T08:56:09.938Z,17.94
2019-05-17T08:58:40.318Z,18.27
2019-05-17T09:01:11.131Z,17.49
2019-05-17T09:03:41.281Z,17.61
2019-05-17T09:06:12.355Z,17.92
2019-05-17T09:08:40.697Z,18.18
2019-05-17T09:11:09.876Z,18.70
2019-05-17T09:13:43.916Z,18.35
2019-05-17T09:16:21.809Z,18.90
2019-05-17T09:18:50.482Z,18.79
2019-05-17T09:21:59.842Z,19.13
2019-05-17T09:24:30.041Z,18.94
2019-05-17T09:26:59.946Z,18.35
2019-05-17T09:29:30.060Z,18.54
2019-05-17T09:31:59.925Z,19.15
2019-05-17T09:34:30.023Z,19.23
2019-05-17T09:37:00.300Z,19.53
2019-05-17T09:39:29.651Z,19.43
2019-05-17T09:41:59.574Z,19.45
2019-05-17T09:44:29.878Z,18.95
2019-05-17T09:46:59.569Z,19.47
2019-05-17T09:49:29.957Z,19.84
2019-05-17T09:52:00.229Z,20.05
2019-05-17T09:54:41.594Z,19.65
2019-05-17T09:57:00.602Z,19.79
2019-05-17T09:59:29.800Z,20.30
2019-05-17T10:02:00.107Z,20.23
2019-05-17T10:04:30.421Z,20.16
2019-05-17T10:07:00.564Z,19.43
2019-05-17T10:09:29.126Z,19.88
2019-05-17T10:11:59.883Z,20.39
2019-05-17T10:14:30.804Z,20.51
2019-05-17T10:17:00.355Z,20.34
2019-05-17T10:19:29.409Z,20.40
2019-05-17T10:22:20.062Z,20.20
2019-05-17T10:24:48.970Z,20.41
2019-05-17T10:27:19.509Z,20.11
2019-05-17T10:29:50.045Z,19.92
2019-05-17T10:32:20.518Z,20.22
2019-05-17T10:34:49.539Z,20.16
2019-05-17T10:37:59.608Z,19.92
2019-05-17T10:40:29.866Z,20.22
2019-05-17T10:43:00.773Z,20.52
2019-05-17T10:45:49.518Z,20.61
2019-05-17T10:48:21.000Z,20.76
2019-05-17T10:50:49.656Z,20.82
2019-05-17T10:53:20.422Z,21.06
2019-05-17T10:55:49.824Z,20.73
2019-05-17T10:58:21.288Z,21.51
2019-05-17T11:00:50.285Z,21.40
2019-05-17T11:03:20.503Z,20.64
2019-05-17T11:05:50.230Z,21.27
2019-05-17T11:08:19.823Z,21.72
2019-05-17T11:10:50.309Z,21.68
2019-05-17T11:13:20.249Z,21.86
2019-05-17T11:15:48.920Z,22.04
2019-05-17T11:18:17.534Z,21.83
2019-05-17T11:21:25.976Z,21.46
2019-05-17T11:23:54.555Z,21.46
2019-05-17T11:26:23.239Z,21.68
2019-05-17T11:28:51.875Z,21.87
2019-05-17T11:31:20.560Z,22.32
2019-05-17T11:33:49.182Z,22.77
2019-05-17T11:36:17.805Z,23.10
2019-05-17T11:38:46.386Z,22.78
2019-05-17T11:41:20.946Z,22.87
2019-05-17T11:43:45.489Z,23.06
2019-05-17T11:46:14.159Z,22.92
2019-05-17T11:48:42.826Z,22.30
2019-05-17T11:51:11.460Z,22.08
2019-05-17T11:53:40.074Z,22.69
2019-05-17T11:56:08.697Z,22.83
2019-05-17T11:58:37.345Z,22.61
2019-05-17T12:01:06.018Z,22.66
2019-05-17T12:03:34.779Z,22.63
2019-05-17T12:06:03.466Z,22.41
2019-05-17T12:08:32.108Z,22.64
2019-05-17T12:11:00.812Z,22.30
2019-05-17T12:13:29.486Z,22.22
2019-05-17T12:15:58.114Z,22.67
2019-05-17T12:18:26.793Z,22.74
2019-05-17T12:20:55.481Z,22.71
2019-05-17T12:23:24.068Z,23.24
2019-05-17T12:25:52.745Z,23.08
2019-05-17T12:28:21.424Z,22.58
2019-05-17T12:30:50.069Z,22.55
2019-05-17T12:33:18.723Z,23.12
2019-05-17T12:35:47.411Z,23.13
2019-05-17T12:38:35.309Z,22.85
2019-05-17T12:41:04.003Z,23.62
2019-05-17T12:43:32.679Z,23.51
2019-05-17T12:46:01.886Z,23.07
2019-05-17T12:48:31.729Z,23.72
2019-05-17T12:51:00.420Z,23.73
2019-05-17T12:53:29.164Z,24.16
2019-05-17T12:55:57.750Z,24.11
2019-05-17T12:58:26.426Z,24.40
2019-05-17T13:00:55.061Z,23.86
2019-05-17T13:03:23.678Z,24.37
2019-05-17T13:05:52.326Z,24.52
2019-05-17T13:08:20.961Z,24.32
2019-05-17T13:10:49.726Z,23.66
2019-05-17T13:13:38.077Z,24.04
2019-05-17T13:16:26.467Z,24.09
2019-05-17T13:18:55.118Z,23.80
2019-05-17T13:21:23.874Z,24.52
2019-05-17T13:23:52.546Z,24.44
2019-05-17T13:26:21.245Z,24.92
2019-05-17T13:28:49.863Z,24.88
2019-05-17T13:31:18.548Z,25.19
2019-05-17T13:33:47.152Z,25.49
2019-05-17T13:36:16.070Z,25.43
2019-05-17T13:38:44.741Z,25.93
2019-05-17T13:41:13.704Z,26.14
2019-05-17T13:43:42.315Z,26.29
2019-05-17T13:46:11.033Z,26.33
2019-05-17T13:48:39.648Z,27.09
2019-05-17T13:51:27.573Z,27.52
2019-05-17T13:53:56.203Z,25.81
2019-05-17T13:56:24.899Z,25.84
2019-05-17T13:58:53.542Z,26.18
2019-05-17T14:01:22.428Z,26.29
2019-05-17T14:03:51.085Z,25.33
2019-05-17T14:06:19.757Z,25.02
2019-05-17T14:08:48.347Z,25.16
2019-05-17T14:11:17.072Z,25.05
2019-05-17T14:13:45.643Z,25.11
2019-05-17T14:16:14.317Z,24.42
2019-05-17T14:18:43.016Z,24.91
2019-05-17T14:21:11.660Z,24.71
2019-05-17T14:23:40.271Z,25.09
2019-05-17T14:26:08.928Z,24.73
2019-05-17T14:28:37.624Z,24.54
2019-05-17T14:31:06.254Z,24.11
2019-05-17T14:33:35.182Z,24.38
2019-05-17T14:36:03.804Z,23.25
2019-05-17T14:38:32.535Z,23.34
2019-05-17T14:41:20.304Z,22.77
2019-05-17T14:43:48.923Z,22.72
2019-05-17T14:46:17.566Z,22.63
2019-05-17T14:48:46.172Z,22.31
2019-05-17T14:51:14.844Z,22.53
2019-05-17T14:53:43.494Z,22.44
2019-05-17T14:56:12.104Z,22.51
2019-05-17T14:58:40.690Z,22.64
2019-05-17T15:01:09.363Z,22.58
2019-05-17T15:03:37.996Z,22.62
2019-05-17T15:06:06.617Z,22.42
2019-05-17T15:09:15.075Z,22.74
2019-05-17T15:11:43.983Z,23.03
2019-05-17T15:14:14.117Z,22.97
2019-05-17T15:16:42.790Z,22.65
2019-05-17T15:19:11.528Z,22.90
2019-05-17T15:21:40.145Z,23.11
2019-05-17T15:24:08.788Z,22.89
2019-05-17T15:26:37.431Z,23.33
2019-05-17T15:29:06.216Z,22.93
2019-05-17T15:32:14.734Z,22.72
2019-05-17T15:34:43.499Z,22.79
2019-05-17T15:37:12.215Z,22.77
2019-05-17T15:39:40.892Z,22.94
2019-05-17T15:42:09.555Z,22.62
2019-05-17T15:44:38.109Z,23.43
2019-05-17T15:47:06.787Z,23.48
2019-05-17T15:49:35.388Z,24.03
2019-05-17T15:52:04.140Z,24.21
2019-05-17T15:54:32.769Z,23.53
2019-05-17T15:57:01.485Z,23.16
2019-05-17T15:59:30.165Z,23.07
2019-05-17T16:02:18.133Z,22.26
2019-05-17T16:04:46.753Z,21.93
2019-05-17T16:07:15.449Z,22.34
2019-05-17T16:09:44.008Z,21.81
2019-05-17T16:12:12.707Z,21.99
2019-05-17T16:14:41.361Z,21.55
2019-05-17T16:17:10.029Z,21.58
2019-05-17T16:19:38.637Z,21.37
2019-05-17T16:22:07.280Z,21.45
2019-05-17T16:24:35.879Z,21.53
2019-05-17T16:27:04.605Z,21.34
2019-05-17T16:29:33.612Z,21.10
2019-05-17T16:32:02.259Z,20.93
2019-05-17T16:34:30.981Z,20.84
2019-05-17T16:36:59.625Z,20.87
2019-05-17T16:39:28.317Z,20.62
2019-05-17T16:41:57.076Z,20.48
2019-05-17T16:44:25.856Z,20.56
2019-05-17T16:46:54.536Z,20.32
2019-05-17T16:49:23.205Z,20.43
2019-05-17T16:51:51.866Z,20.29
2019-05-17T16:54:20.631Z,20.17
2019-05-17T16:56:49.332Z,19.60
2019-05-17T16:59:17.977Z,19.33
2019-05-17T17:02:06.080Z,18.70
2019-05-17T17:04:34.719Z,18.23
2019-05-17T17:07:03.327Z,18.43
2019-05-17T17:09:31.949Z,17.69
2019-05-17T17:12:00.633Z,17.50
2019-05-17T17:14:29.211Z,17.49
2019-05-17T17:16:57.886Z,17.17
2019-05-17T17:19:26.581Z,17.21
2019-05-17T17:21:55.185Z,17.11
2019-05-17T17:24:23.815Z,17.07
2019-05-17T17:26:52.529Z,16.75
2019-05-17T17:29:21.152Z,16.89
2019-05-17T17:31:49.858Z,16.58
2019-05-17T17:34:18.543Z,16.62
2019-05-17T17:36:47.151Z,16.60
2019-05-17T17:39:15.837Z,16.67
2019-05-17T17:41:44.478Z,16.52
2019-05-17T17:44:13.087Z,16.45
2019-05-17T17:46:41.713Z,16.54
2019-05-17T17:49:10.408Z,16.61
2019-05-17T17:51:39.038Z,16.34
2019-05-17T17:54:07.724Z,16.51
2019-05-17T17:56:36.423Z,16.57
2019-05-17T17:59:05.133Z,16.57
2019-05-17T18:01:33.710Z,16.25
2019-05-17T18:04:02.370Z,16.26
2019-05-17T18:06:31.013Z,16.40
2019-05-17T18:08:59.721Z,16.29
2019-05-17T18:11:28.347Z,16.37
2019-05-17T18:13:57.055Z,16.46
2019-05-17T18:16:25.657Z,16.41
2019-05-17T18:18:54.353Z,16.17
2019-05-17T18:21:23.039Z,16.14
2019-05-17T18:23:51.683Z,16.02
2019-05-17T18:26:20.372Z,15.99
2019-05-17T18:28:49.075Z,15.93
2019-05-17T18:31:17.810Z,15.87
2019-05-17T18:33:46.387Z,15.63
2019-05-17T18:36:15.081Z,15.65
2019-05-17T18:39:23.486Z,15.62
2019-05-17T18:41:54.753Z,15.60
2019-05-17T18:44:27.740Z,15.59
2019-05-17T18:46:53.029Z,15.56
2019-05-17T18:49:21.637Z,15.45
2019-05-17T18:51:50.295Z,15.34
2019-05-17T18:54:58.753Z,15.30
2019-05-17T18:57:27.405Z,15.15
2019-05-17T18:59:56.084Z,15.43
2019-05-17T19:02:24.730Z,15.27
2019-05-17T19:04:53.412Z,15.20
2019-05-17T19:07:22.026Z,15.12
2019-05-17T19:09:50.668Z,15.06
2019-05-17T19:12:19.255Z,15.00
2019-05-17T19:14:47.923Z,15.29
2019-05-17T19:17:16.574Z,15.32
2019-05-17T19:19:45.191Z,15.17
2019-05-17T19:22:13.936Z,15.01
2019-05-17T19:24:42.591Z,15.19
2019-05-17T19:27:11.320Z,15.17
2019-05-17T19:29:43.114Z,15.15
2019-05-17T19:32:10.550Z,15.16
2019-05-17T19:34:39.115Z,14.94
2019-05-17T19:37:07.755Z,14.74
2019-05-17T19:39:36.432Z,14.53
2019-05-17T19:42:05.115Z,14.45
2019-05-17T19:44:40.918Z,14.39
2019-05-17T19:47:09.525Z,14.32
2019-05-17T19:49:38.148Z,14.36
2019-05-17T19:52:06.778Z,14.26
2019-05-17T19:54:35.422Z,14.34
2019-05-17T19:59:58.676Z,14.35
2019-05-17T20:02:27.242Z,14.43
2019-05-17T20:04:55.872Z,14.67
2019-05-17T20:07:24.536Z,14.41
2019-05-17T20:09:53.219Z,14.23
2019-05-17T20:12:21.874Z,14.36
2019-05-17T20:14:50.363Z,14.41
2019-05-17T20:17:18.989Z,14.31
2019-05-17T20:19:47.628Z,14.17
2019-05-17T20:22:16.377Z,14.01
2019-05-17T20:24:45.025Z,14.06
2019-05-17T20:27:13.668Z,13.99
2019-05-17T20:29:42.288Z,14.01
2019-05-17T20:32:10.930Z,13.84
2019-05-17T20:34:39.718Z,13.76
2019-05-17T20:37:08.359Z,13.70
2019-05-17T20:39:36.946Z,13.68
2019-05-17T20:42:05.623Z,13.67
2019-05-17T20:44:34.271Z,13.67
2019-05-17T20:47:02.961Z,13.65
2019-05-17T20:49:31.490Z,13.69
2019-05-17T20:52:00.076Z,13.73
2019-05-17T20:54:28.709Z,13.78
2019-05-17T20:56:57.475Z,13.84
2019-05-17T20:59:26.126Z,13.84
2019-05-17T21:01:54.809Z,13.82
2019-05-17T21:04:23.512Z,13.75
2019-05-17T21:06:52.676Z,13.80
2019-05-17T21:09:21.221Z,13.93
2019-05-17T21:11:49.928Z,13.95
2019-05-17T21:14:18.576Z,14.03
2019-05-17T21:16:47.108Z,14.18
2019-05-17T21:19:15.765Z,14.34
2019-05-17T21:21:44.435Z,14.41
2019-05-17T21:24:12.941Z,14.22
2019-05-17T21:26:41.569Z,14.07
2019-05-17T21:29:10.183Z,14.00
2019-05-17T21:31:38.812Z,13.87
2019-05-17T21:34:07.447Z,13.87
2019-05-17T21:36:36.127Z,13.76
2019-05-17T21:39:44.549Z,13.66
2019-05-17T21:42:13.160Z,13.65
2019-05-17T21:44:41.839Z,13.74
2019-05-17T21:47:30.035Z,13.66
2019-05-17T21:49:58.602Z,13.59
2019-05-17T21:52:27.269Z,13.52
2019-05-17T21:54:55.986Z,13.56
2019-05-17T21:57:24.629Z,13.61
2019-05-17T21:59:53.314Z,13.70
2019-05-17T22:02:21.964Z,13.58
2019-05-17T22:04:50.642Z,13.61
2019-05-17T22:07:19.316Z,13.52
2019-05-17T22:10:07.229Z,13.39
2019-05-17T22:12:35.899Z,13.31
2019-05-17T22:15:44.386Z,13.32
2019-05-17T22:18:12.952Z,13.29
2019-05-17T22:20:41.643Z,13.34
2019-05-17T22:23:10.521Z,13.34
2019-05-17T22:25:39.080Z,13.24
2019-05-17T22:28:07.777Z,13.31
2019-05-17T22:30:36.410Z,13.31
2019-05-17T22:33:05.107Z,13.24
2019-05-17T22:35:33.767Z,13.45
2019-05-17T22:38:02.372Z,13.29
2019-05-17T22:40:31.004Z,13.22
2019-05-17T22:42:59.560Z,13.24
2019-05-17T22:45:28.223Z,13.21
2019-05-17T22:47:56.810Z,13.20
2019-05-17T22:50:25.382Z,13.19
2019-05-17T22:52:53.990Z,13.19
2019-05-17T22:55:22.555Z,13.26
2019-05-17T22:57:51.243Z,13.17
2019-05-17T23:00:19.869Z,13.19
2019-05-17T23:02:48.554Z,13.26
2019-05-17T23:05:24.777Z,13.31
2019-05-17T23:08:27.428Z,13.28
2019-05-17T23:10:56.174Z,13.16
2019-05-17T23:13:25.063Z,13.24
2019-05-17T23:16:12.832Z,13.16
2019-05-17T23:21:17.148Z,12.92
2019-05-17T23:23:45.960Z,12.89
2019-05-17T23:26:14.467Z,12.80
2019-05-17T23:28:43.012Z,12.81
2019-05-17T23:31:11.762Z,12.85
2019-05-17T23:33:40.306Z,12.72
2019-05-17T23:36:08.955Z,12.72
2019-05-17T23:38:37.568Z,12.82
2019-05-17T23:41:06.154Z,12.82
2019-05-17T23:43:34.673Z,12.73
2019-05-17T23:46:03.332Z,12.72
2019-05-17T23:48:31.995Z,12.65
2019-05-17T23:51:00.612Z,12.63
2019-05-17T23:53:29.199Z,12.67
2019-05-17T23:55:57.874Z,12.72
2019-05-17T23:58:26.803Z,12.67
